Time;durP1;ratioP1;P1;durP2;ratioP2;P2;SDS_P1;SDS_P2;PMS_P1;PMS_P2;Temp;Humidity;BMP_temperature;BMP_pressure;BME280_temperature;BME280_humidity;BME280_pressure;Samples;Min_cycle;Max_cycle;Signal;HPM_P1;HPM_P2
2023/07/25 00:01:38;;;;;;;7.75;3.85;;;;;;;;;;5011078;28;20243;-86
2023/07/25 00:04:05;;;;;;;8.40;4.25;;;;;;;;;;5010861;28;20705;-87
2023/07/25 00:06:31;;;;;;;9.40;4.60;;;;;;;;;;5010345;28;20696;-86
2023/07/25 00:08:58;;;;;;;6.05;4.45;;;;;;;;;;5010955;28;20665;-87
2023/07/25 00:11:26;;;;;;;7.70;4.53;;;;;;;;;;5010918;28;20201;-87
2023/07/25 00:13:55;;;;;;;8.20;4.13;;;;;;;;;;5010771;28;20303;-86
2023/07/25 00:16:22;;;;;;;4.57;3.90;;;;;;;;;;5011020;28;20200;-86
2023/07/25 00:18:50;;;;;;;11.50;4.63;;;;;;;;;;5010594;28;20284;-87
2023/07/25 00:21:17;;;;;;;7.32;4.40;;;;;;;;;;5009676;28;20673;-86
2023/07/25 00:23:44;;;;;;;6.03;4.38;;;;;;;;;;5010231;28;20579;-87
2023/07/25 00:26:11;;;;;;;5.70;4.97;;;;;;;;;;5009698;28;20274;-86
2023/07/25 00:28:38;;;;;;;6.80;4.63;;;;;;;;;;5010425;28;20201;-86
2023/07/25 00:31:09;;;;;;;4.70;3.75;;;;;;;;;;5010605;28;20615;-85
2023/07/25 00:33:37;;;;;;;8.27;4.25;;;;;;;;;;5010573;28;20205;-86
2023/07/25 00:36:04;;;;;;;6.80;4.47;;;;;;;;;;5010230;28;20200;-86
2023/07/25 00:38:31;;;;;;;7.47;4.38;;;;;;;;;;5010531;28;20204;-87
2023/07/25 00:40:58;;;;;;;6.35;4.43;;;;;;;;;;5010973;28;20628;-86
2023/07/25 00:43:27;;;;;;;9.65;5.03;;;;;;;;;;5011118;28;20284;-85
2023/07/25 00:45:55;;;;;;;6.05;4.80;;;;;;;;;;5010579;28;20213;-87
2023/07/25 00:48:24;;;;;;;6.03;4.32;;;;;;;;;;5010561;28;20251;-86
2023/07/25 00:50:52;;;;;;;7.03;4.63;;;;;;;;;;5010933;28;20614;-86
2023/07/25 00:53:20;;;;;;;8.32;5.30;;;;;;;;;;5011716;28;20201;-87
2023/07/25 00:55:49;;;;;;;13.70;4.88;;;;;;;;;;5010151;28;20330;-87
2023/07/25 00:58:17;;;;;;;5.38;4.38;;;;;;;;;;5007121;28;20222;-86
2023/07/25 01:00:46;;;;;;;8.38;4.07;;;;;;;;;;4990954;28;20220;-86
2023/07/25 01:03:15;;;;;;;15.05;5.35;;;;;;;;;;4991711;28;20326;-87
2023/07/25 01:05:48;;;;;;;8.27;4.75;;;;;;;;;;4990909;28;20207;-86
2023/07/25 01:08:15;;;;;;;6.93;4.20;;;;;;;;;;4991015;28;20190;-85
2023/07/25 01:10:42;;;;;;;5.55;4.25;;;;;;;;;;4990802;28;20208;-86
2023/07/25 01:13:09;;;;;;;9.93;4.57;;;;;;;;;;4990460;28;20223;-86
2023/07/25 01:15:36;;;;;;;6.82;4.65;;;;;;;;;;4990662;28;20255;-86
2023/07/25 01:18:03;;;;;;;6.82;4.38;;;;;;;;;;4991348;28;20204;-87
2023/07/25 01:20:32;;;;;;;7.25;5.00;;;;;;;;;;4990636;28;20208;-87
2023/07/25 01:23:01;;;;;;;5.82;4.07;;;;;;;;;;4990618;28;20662;-86
2023/07/25 01:25:29;;;;;;;7.43;4.03;;;;;;;;;;4990673;28;20201;-86
2023/07/25 01:27:56;;;;;;;26.58;12.35;;;;;;;;;;4990285;28;20213;-87
2023/07/25 01:30:22;;;;;;;32.08;13.98;;;;;;;;;;4990121;28;20202;-86
2023/07/25 01:32:49;;;;;;;6.70;4.82;;;;;;;;;;4991100;28;20201;-86
2023/07/25 01:35:16;;;;;;;8.20;5.28;;;;;;;;;;4990458;28;20221;-86
2023/07/25 01:40:26;;;;;;;6.03;4.50;;;;;;;;;;4989510;28;20201;-86
2023/07/25 01:42:54;;;;;;;6.57;4.63;;;;;;;;;;4994043;28;20215;-86
2023/07/25 01:45:21;;;;;;;6.40;4.57;;;;;;;;;;5003114;28;20193;-86
2023/07/25 01:47:48;;;;;;;10.10;4.70;;;;;;;;;;5010907;28;20256;-86
2023/07/25 01:50:15;;;;;;;6.05;4.55;;;;;;;;;;4995316;28;20227;-86
2023/07/25 01:52:42;;;;;;;10.60;4.68;;;;;;;;;;4993054;28;20212;-86
2023/07/25 01:55:09;;;;;;;16.50;4.85;;;;;;;;;;4993418;28;20241;-86
2023/07/25 01:57:36;;;;;;;6.60;4.53;;;;;;;;;;4997857;28;20224;-85
2023/07/25 02:00:05;;;;;;;6.57;4.78;;;;;;;;;;4999317;28;20224;-87
2023/07/25 02:02:32;;;;;;;5.95;4.95;;;;;;;;;;5009024;28;20194;-86
2023/07/25 02:04:59;;;;;;;8.23;4.60;;;;;;;;;;5003141;28;20646;-88
2023/07/25 02:07:26;;;;;;;8.80;4.38;;;;;;;;;;4995092;28;20221;-86
2023/07/25 02:09:53;;;;;;;6.43;4.35;;;;;;;;;;4992264;28;20197;-86
2023/07/25 02:12:20;;;;;;;5.68;3.90;;;;;;;;;;4993111;28;20674;-86
2023/07/25 02:14:47;;;;;;;5.68;4.65;;;;;;;;;;4994104;28;20279;-85
2023/07/25 02:17:15;;;;;;;10.48;5.05;;;;;;;;;;4993728;28;20201;-86
2023/07/25 02:19:42;;;;;;;12.52;4.82;;;;;;;;;;4993559;28;20301;-86
2023/07/25 02:22:09;;;;;;;6.00;4.45;;;;;;;;;;4994523;28;20201;-86
2023/07/25 02:24:36;;;;;;;5.60;4.13;;;;;;;;;;4994289;28;20666;-86
2023/07/25 02:27:04;;;;;;;5.28;3.90;;;;;;;;;;4993220;28;20204;-86
2023/07/25 02:29:31;;;;;;;9.23;4.70;;;;;;;;;;4993941;28;20208;-87
2023/07/25 02:31:59;;;;;;;4.35;3.95;;;;;;;;;;4994353;28;20231;-86
2023/07/25 02:34:27;;;;;;;5.47;4.68;;;;;;;;;;4993684;28;20253;-85
2023/07/25 02:36:54;;;;;;;5.93;4.47;;;;;;;;;;4992971;28;20227;-86
2023/07/25 02:39:22;;;;;;;6.72;4.00;;;;;;;;;;4993663;28;20229;-85
2023/07/25 02:41:48;;;;;;;4.22;3.60;;;;;;;;;;4993450;28;20209;-85
2023/07/25 02:44:15;;;;;;;7.53;4.53;;;;;;;;;;4992761;28;20288;-85
2023/07/25 02:46:42;;;;;;;7.38;3.95;;;;;;;;;;4993934;28;20224;-85
2023/07/25 02:49:09;;;;;;;5.53;4.57;;;;;;;;;;4993504;28;20206;-86
2023/07/25 02:51:37;;;;;;;7.63;5.18;;;;;;;;;;4994204;28;20279;-86
2023/07/25 02:54:04;;;;;;;5.53;4.30;;;;;;;;;;4994673;28;20200;-86
2023/07/25 02:56:32;;;;;;;12.70;4.43;;;;;;;;;;4992807;28;20238;-85
2023/07/25 02:58:59;;;;;;;10.30;4.78;;;;;;;;;;4993445;28;20291;-85
2023/07/25 03:01:26;;;;;;;6.65;4.43;;;;;;;;;;4993631;28;20546;-86
2023/07/25 03:03:53;;;;;;;8.05;5.18;;;;;;;;;;4993611;28;20208;-85
2023/07/25 03:06:20;;;;;;;8.45;4.47;;;;;;;;;;4993752;28;20207;-86
2023/07/25 03:08:50;;;;;;;5.50;3.97;;;;;;;;;;4993192;28;20322;-86
2023/07/25 03:11:16;;;;;;;5.53;4.05;;;;;;;;;;4992628;28;20269;-86
2023/07/25 03:13:43;;;;;;;5.82;4.15;;;;;;;;;;4992854;28;20232;-86
2023/07/25 03:16:12;;;;;;;4.55;4.13;;;;;;;;;;4992875;28;20240;-87
2023/07/25 03:18:39;;;;;;;7.93;4.63;;;;;;;;;;4992435;28;20264;-86
2023/07/25 03:21:08;;;;;;;4.63;4.22;;;;;;;;;;4991886;28;20215;-85
2023/07/25 03:23:34;;;;;;;15.10;5.78;;;;;;;;;;4992849;28;20416;-86
2023/07/25 03:26:03;;;;;;;8.07;5.20;;;;;;;;;;4993922;28;20205;-85
2023/07/25 03:28:30;;;;;;;6.43;4.15;;;;;;;;;;5012282;28;20286;-85
2023/07/25 03:30:57;;;;;;;6.07;4.35;;;;;;;;;;5012214;28;20212;-85
2023/07/25 03:33:24;;;;;;;10.63;5.07;;;;;;;;;;5012547;28;20193;-83
2023/07/25 03:35:51;;;;;;;12.00;4.97;;;;;;;;;;5015477;28;20588;-85
2023/07/25 03:38:18;;;;;;;10.52;5.25;;;;;;;;;;5012434;28;20219;-85
2023/07/25 03:40:45;;;;;;;28.73;13.75;;;;;;;;;;5012665;28;20273;-85
2023/07/25 03:43:13;;;;;;;10.48;5.95;;;;;;;;;;5013226;28;20654;-86
2023/07/25 03:45:40;;;;;;;9.95;4.70;;;;;;;;;;5012543;28;20695;-86
2023/07/25 03:48:07;;;;;;;15.05;5.93;;;;;;;;;;5011353;28;20594;-86
2023/07/25 03:50:34;;;;;;;13.57;5.65;;;;;;;;;;5012371;28;20625;-86
2023/07/25 03:53:00;;;;;;;9.30;5.10;;;;;;;;;;5013003;28;20205;-87
2023/07/25 03:55:27;;;;;;;9.43;5.65;;;;;;;;;;5012399;28;20240;-86
2023/07/25 03:57:54;;;;;;;6.18;4.35;;;;;;;;;;5012557;28;20209;-86
2023/07/25 04:00:22;;;;;;;7.47;5.93;;;;;;;;;;5013249;28;20580;-86
2023/07/25 04:02:49;;;;;;;8.20;5.32;;;;;;;;;;5012465;28;20231;-86
2023/07/25 04:05:16;;;;;;;8.48;4.78;;;;;;;;;;5011671;28;20505;-84
2023/07/25 04:07:44;;;;;;;10.88;6.05;;;;;;;;;;5011318;28;20221;-86
2023/07/25 04:10:11;;;;;;;14.80;6.13;;;;;;;;;;5007395;28;20299;-85
2023/07/25 04:12:39;;;;;;;8.07;5.50;;;;;;;;;;5000472;28;20659;-85
2023/07/25 04:15:08;;;;;;;8.02;5.50;;;;;;;;;;5003571;28;20324;-86
2023/07/25 04:17:37;;;;;;;8.32;6.03;;;;;;;;;;5002741;28;20642;-86
2023/07/25 04:20:05;;;;;;;9.70;5.35;;;;;;;;;;5003798;28;20492;-86
2023/07/25 04:22:32;;;;;;;14.05;6.93;;;;;;;;;;5002971;28;20312;-85
2023/07/25 04:24:59;;;;;;;8.65;6.00;;;;;;;;;;5004704;28;20213;-87
2023/07/25 04:27:27;;;;;;;12.18;5.60;;;;;;;;;;5011173;28;20208;-85
2023/07/25 04:29:54;;;;;;;8.15;6.00;;;;;;;;;;5010957;28;20205;-87
2023/07/25 04:32:20;;;;;;;15.23;5.88;;;;;;;;;;5010147;28;20200;-85
2023/07/25 04:34:49;;;;;;;14.38;6.68;;;;;;;;;;5010803;28;20205;-85
2023/07/25 04:37:16;;;;;;;34.83;7.25;;;;;;;;;;5010333;28;20280;-86
2023/07/25 04:39:43;;;;;;;8.65;6.15;;;;;;;;;;5010538;28;20281;-85
2023/07/25 04:42:11;;;;;;;7.75;6.53;;;;;;;;;;5010754;28;20258;-85
2023/07/25 04:44:37;;;;;;;10.60;5.70;;;;;;;;;;5010575;28;20651;-85
2023/07/25 04:47:04;;;;;;;11.65;6.07;;;;;;;;;;5010129;28;20741;-85
2023/07/25 04:49:32;;;;;;;11.10;6.78;;;;;;;;;;5010330;28;20193;-84
2023/07/25 04:52:00;;;;;;;10.73;7.15;;;;;;;;;;5009895;28;20220;-84
2023/07/25 04:54:26;;;;;;;8.85;6.18;;;;;;;;;;5000808;28;20319;-84
2023/07/25 04:56:53;;;;;;;10.35;6.72;;;;;;;;;;4990606;28;20644;-85
2023/07/25 04:59:20;;;;;;;16.85;7.65;;;;;;;;;;4990749;28;20205;-85
2023/07/25 05:01:46;;;;;;;8.90;6.38;;;;;;;;;;4992081;28;20240;-84
2023/07/25 05:04:15;;;;;;;14.18;7.55;;;;;;;;;;4992945;28;20698;-85
2023/07/25 05:06:42;;;;;;;11.13;6.47;;;;;;;;;;4992898;28;20688;-84
2023/07/25 05:09:14;;;;;;;10.82;7.03;;;;;;;;;;4993907;28;20209;-84
2023/07/25 05:11:51;;;;;;;10.38;6.97;;;;;;;;;;4992034;28;20720;-84
2023/07/25 05:14:18;;;;;;;12.70;7.03;;;;;;;;;;4990586;28;20212;-85
2023/07/25 05:16:45;;;;;;;11.15;7.03;;;;;;;;;;4989891;28;20235;-85
2023/07/25 05:19:13;;;;;;;14.98;7.20;;;;;;;;;;4990758;28;20205;-85
2023/07/25 05:21:39;;;;;;;8.50;6.80;;;;;;;;;;4990789;28;20292;-86
2023/07/25 05:24:06;;;;;;;9.65;6.75;;;;;;;;;;4998192;28;20295;-84
2023/07/25 05:26:35;;;;;;;14.57;7.30;;;;;;;;;;5017822;28;20200;-84
2023/07/25 05:29:09;;;;;;;14.50;7.72;;;;;;;;;;5025504;28;20230;-84
2023/07/25 05:31:35;;;;;;;14.85;7.13;;;;;;;;;;5013000;28;20212;-85
2023/07/25 05:34:02;;;;;;;11.55;7.93;;;;;;;;;;5010251;28;20210;-84
2023/07/25 05:36:29;;;;;;;15.40;7.75;;;;;;;;;;5009393;28;20239;-85
2023/07/25 05:38:56;;;;;;;11.00;8.02;;;;;;;;;;5010014;28;20662;-84
2023/07/25 05:41:23;;;;;;;13.27;6.65;;;;;;;;;;5009696;28;20255;-85
2023/07/25 05:43:51;;;;;;;9.98;7.25;;;;;;;;;;5010744;28;20208;-85
2023/07/25 05:46:18;;;;;;;14.02;7.38;;;;;;;;;;5013759;28;20287;-85
2023/07/25 05:48:48;;;;;;;8.88;7.10;;;;;;;;;;5014298;28;20231;-84
2023/07/25 05:51:15;;;;;;;7.40;6.05;;;;;;;;;;5014153;28;20214;-84
2023/07/25 05:53:45;;;;;;;10.90;7.10;;;;;;;;;;5015436;28;20224;-85
2023/07/25 05:56:13;;;;;;;8.95;7.03;;;;;;;;;;5019709;28;20251;-85
2023/07/25 05:58:44;;;;;;;11.80;7.35;;;;;;;;;;5020613;28;20304;-84
2023/07/25 06:01:13;;;;;;;8.60;5.68;;;;;;;;;;5024898;28;20208;-84
2023/07/25 06:03:40;;;;;;;9.85;7.03;;;;;;;;;;5026365;28;20210;-87
2023/07/25 06:06:07;;;;;;;13.02;7.25;;;;;;;;;;5022126;28;20207;-84
2023/07/25 06:08:34;;;;;;;12.50;6.90;;;;;;;;;;5015800;28;20204;-84
2023/07/25 06:11:01;;;;;;;8.13;6.43;;;;;;;;;;5015440;28;20212;-84
2023/07/25 06:13:28;;;;;;;10.50;6.53;;;;;;;;;;5014046;28;20257;-84
2023/07/25 06:15:55;;;;;;;9.98;6.30;;;;;;;;;;5012535;28;20227;-84
2023/07/25 06:18:27;;;;;;;10.63;7.15;;;;;;;;;;5011121;28;20221;-85
2023/07/25 06:20:54;;;;;;;8.85;7.00;;;;;;;;;;4999517;28;20229;-84
2023/07/25 06:23:24;;;;;;;10.90;6.65;;;;;;;;;;5013360;28;20275;-83
2023/07/25 06:25:51;;;;;;;8.43;6.43;;;;;;;;;;5013551;28;20230;-84
2023/07/25 06:28:18;;;;;;;8.55;6.28;;;;;;;;;;5018311;28;20259;-85
2023/07/25 06:30:45;;;;;;;10.48;6.45;;;;;;;;;;5013541;28;20224;-84
2023/07/25 06:33:15;;;;;;;8.57;6.80;;;;;;;;;;5018241;28;20238;-85
2023/07/25 06:35:44;;;;;;;7.97;6.32;;;;;;;;;;5004529;28;20294;-84
2023/07/25 06:38:11;;;;;;;7.78;6.05;;;;;;;;;;5011294;28;20229;-85
2023/07/25 06:40:38;;;;;;;7.30;6.35;;;;;;;;;;5010729;28;20229;-85
2023/07/25 06:43:05;;;;;;;8.63;6.03;;;;;;;;;;4999547;28;20260;-85
2023/07/25 06:45:32;;;;;;;10.75;7.10;;;;;;;;;;4992552;28;20317;-86
2023/07/25 06:47:59;;;;;;;11.75;6.47;;;;;;;;;;4991148;28;20224;-85
2023/07/25 06:50:26;;;;;;;11.00;5.80;;;;;;;;;;4992138;28;20232;-85
2023/07/25 06:52:55;;;;;;;7.32;5.72;;;;;;;;;;4991005;28;20232;-86
2023/07/25 06:55:22;;;;;;;9.57;6.57;;;;;;;;;;5005808;28;20231;-85
2023/07/25 06:57:49;;;;;;;8.98;6.30;;;;;;;;;;5010837;28;20721;-86
2023/07/25 07:00:16;;;;;;;10.00;6.40;;;;;;;;;;5011053;28;20645;-86
2023/07/25 07:02:49;;;;;;;6.60;5.93;;;;;;;;;;5010717;28;20220;-87
2023/07/25 07:05:15;;;;;;;7.05;5.57;;;;;;;;;;5011128;28;20224;-85
2023/07/25 07:07:42;;;;;;;;;;;;;;;;;;5010809;28;20232;-86
2023/07/25 07:10:09;;;;;;;;;;;;;;;;;;5011234;28;19928;-85
2023/07/25 07:12:35;;;;;;;;;;;;;;;;;;5011522;28;19925;-86
2023/07/25 07:15:03;;;;;;;;;;;;;;;;;;5010527;28;19944;-85
2023/07/25 07:17:29;;;;;;;;;;;;;;;;;;5010943;28;20305;-84
2023/07/25 07:19:58;;;;;;;;;;;;;;;;;;5008043;28;19997;-85
2023/07/25 07:22:25;;;;;;;;;;;;;;;;;;5010987;28;19929;-85
2023/07/25 07:24:52;;;;;;;;;;;;;;;;;;5011089;28;19925;-85
2023/07/25 07:27:19;;;;;;;;;;;;;;;;;;5011442;28;19929;-85
2023/07/25 07:29:46;;;;;;;;;;;;;;;;;;5010510;28;19951;-85
2023/07/25 07:32:12;;;;;;;;;;;;;;;;;;5010446;28;20004;-85
2023/07/25 07:34:39;;;;;;;;;;;;;;;;;;5010821;28;19949;-85
2023/07/25 07:37:06;;;;;;;;;;;;;;;;;;5009866;28;19944;-86
2023/07/25 07:39:32;;;;;;;;;;;;;;;;;;5009878;28;19926;-85
2023/07/25 07:41:59;;;;;;;;;;;;;;;;;;5011245;28;20274;-86
2023/07/25 07:44:26;;;;;;;;;;;;;;;;;;5010255;28;19928;-86
2023/07/25 07:46:52;;;;;;;;;;;;;;;;;;5010192;28;19925;-86
2023/07/25 07:49:19;;;;;;;;;;;;;;;;;;5010706;28;19921;-84
2023/07/25 07:51:46;;;;;;;;;;;;;;;;;;5010343;28;19925;-85
2023/07/25 07:54:13;;;;;;;;;;;;;;;;;;5010438;28;19922;-86
2023/07/25 07:56:42;;;;;;;8.68;7.07;;;;;;;;;;5008997;28;20457;-85
2023/07/25 07:59:09;;;;;;;12.88;6.63;;;;;;;;;;5009200;28;20739;-85
2023/07/25 08:01:36;;;;;;;7.65;6.72;;;;;;;;;;5008003;28;20274;-86
2023/07/25 08:04:03;;;;;;;9.45;7.28;;;;;;;;;;5008297;28;20585;-86
2023/07/25 08:06:31;;;;;;;9.30;6.80;;;;;;;;;;5007279;28;20224;-84
2023/07/25 08:08:57;;;;;;;12.70;6.85;;;;;;;;;;5008380;28;20298;-85
2023/07/25 08:11:24;;;;;;;8.90;6.65;;;;;;;;;;5008001;28;20255;-85
2023/07/25 08:13:52;;;;;;;8.35;6.55;;;;;;;;;;5007998;28;20255;-86
2023/07/25 08:16:19;;;;;;;11.13;7.55;;;;;;;;;;5008905;28;20247;-84
2023/07/25 08:18:45;;;;;;;11.43;6.70;;;;;;;;;;5010102;28;20408;-86
2023/07/25 08:21:12;;;;;;;11.25;6.18;;;;;;;;;;5009258;28;20274;-85
2023/07/25 08:23:39;;;;;;;11.13;6.55;;;;;;;;;;5010051;28;20262;-85
2023/07/25 08:26:09;;;;;;;7.40;6.20;;;;;;;;;;5009427;28;20231;-87
2023/07/25 08:28:35;;;;;;;10.15;6.38;;;;;;;;;;5008981;28;20224;-85
2023/07/25 08:31:05;;;;;;;14.60;6.15;;;;;;;;;;5008715;28;20248;-85
2023/07/25 08:33:32;;;;;;;10.30;6.70;;;;;;;;;;5009483;28;20236;-86
2023/07/25 08:35:59;;;;;;;6.53;5.93;;;;;;;;;;5008883;28;20692;-85
2023/07/25 08:38:26;;;;;;;6.07;5.40;;;;;;;;;;5009795;28;20223;-86
2023/07/25 08:40:55;;;;;;;10.65;6.65;;;;;;;;;;5009375;28;20604;-85
2023/07/25 08:43:22;;;;;;;9.05;4.95;;;;;;;;;;5010136;28;20232;-85
2023/07/25 08:45:50;;;;;;;6.43;5.63;;;;;;;;;;5010890;28;20235;-85
2023/07/25 08:48:19;;;;;;;6.13;5.43;;;;;;;;;;5011369;28;20220;-86
2023/07/25 08:50:47;;;;;;;11.77;7.15;;;;;;;;;;5009226;28;20754;-85
2023/07/25 08:53:16;;;;;;;8.05;6.22;;;;;;;;;;5008939;28;20220;-85
2023/07/25 08:55:43;;;;;;;7.68;5.07;;;;;;;;;;5008548;28;20251;-84
2023/07/25 08:58:10;;;;;;;7.53;5.85;;;;;;;;;;5007997;28;20239;-85
2023/07/25 09:00:37;;;;;;;11.07;6.05;;;;;;;;;;5008779;28;20227;-85
2023/07/25 09:03:04;;;;;;;8.52;5.85;;;;;;;;;;5008165;28;20278;-85
2023/07/25 09:05:33;;;;;;;10.85;6.10;;;;;;;;;;5008771;28;20293;-85
2023/07/25 09:07:59;;;;;;;8.98;5.57;;;;;;;;;;5008204;28;20279;-86
2023/07/25 09:10:28;;;;;;;12.90;6.57;;;;;;;;;;5009400;28;20220;-85
2023/07/25 09:12:55;;;;;;;8.48;6.20;;;;;;;;;;5007495;28;20681;-85
2023/07/25 09:15:22;;;;;;;9.40;5.38;;;;;;;;;;5008328;28;20293;-84
2023/07/25 09:17:50;;;;;;;7.00;5.70;;;;;;;;;;5008387;28;20347;-85
2023/07/25 09:20:17;;;;;;;9.50;5.68;;;;;;;;;;5012760;28;20329;-84
2023/07/25 09:22:47;;;;;;;12.98;5.55;;;;;;;;;;5013238;28;20298;-85
2023/07/25 09:25:15;;;;;;;8.13;5.43;;;;;;;;;;5013236;28;20246;-86
2023/07/25 09:27:44;;;;;;;12.18;5.75;;;;;;;;;;5012328;28;20236;-84
2023/07/25 09:30:12;;;;;;;7.72;5.50;;;;;;;;;;5011979;28;20453;-85
2023/07/25 09:32:39;;;;;;;12.95;5.85;;;;;;;;;;5013110;28;20653;-85
2023/07/25 09:35:08;;;;;;;7.25;5.38;;;;;;;;;;5012219;28;20232;-87
2023/07/25 09:37:35;;;;;;;7.22;5.25;;;;;;;;;;5013747;28;20248;-85
2023/07/25 09:40:07;;;;;;;7.53;5.57;;;;;;;;;;5012308;28;20311;-85
2023/07/25 09:42:40;;;;;;;7.60;4.80;;;;;;;;;;5012499;28;20696;-86
2023/07/25 09:45:08;;;;;;;7.13;5.28;;;;;;;;;;5011826;28;20223;-86
2023/07/25 09:47:36;;;;;;;11.32;5.85;;;;;;;;;;5012541;28;20223;-85
2023/07/25 09:50:03;;;;;;;6.65;5.28;;;;;;;;;;5011681;28;20460;-86
2023/07/25 09:52:39;;;;;;;14.63;5.63;;;;;;;;;;5012481;28;20255;-87
2023/07/25 09:55:20;;;;;;;9.75;5.55;;;;;;;;;;5010786;28;20396;-85
2023/07/25 09:58:11;;;;;;;7.57;5.90;;;;;;;;;;5009684;28;20232;-86
2023/07/25 10:00:46;;;;;;;9.95;6.50;;;;;;;;;;5012025;28;20224;-85
2023/07/25 10:03:14;;;;;;;9.27;5.85;;;;;;;;;;5012262;28;20223;-85
2023/07/25 10:05:42;;;;;;;7.07;5.03;;;;;;;;;;5013583;28;20311;-85
2023/07/25 10:08:09;;;;;;;11.93;5.72;;;;;;;;;;5011845;28;20232;-85
2023/07/25 10:10:37;;;;;;;14.85;5.90;;;;;;;;;;5011763;28;20224;-85
2023/07/25 10:13:04;;;;;;;15.20;5.72;;;;;;;;;;5011099;28;20363;-85
2023/07/25 10:15:31;;;;;;;14.60;5.70;;;;;;;;;;5011581;28;20239;-86
2023/07/25 10:18:04;;;;;;;7.05;4.78;;;;;;;;;;5011296;28;20295;-85
2023/07/25 10:20:30;;;;;;;8.95;4.97;;;;;;;;;;5010858;28;20682;-85
2023/07/25 10:23:06;;;;;;;8.45;5.28;;;;;;;;;;5011219;28;20216;-85
2023/07/25 10:25:34;;;;;;;5.70;5.15;;;;;;;;;;5011382;28;20234;-86
2023/07/25 10:28:00;;;;;;;12.80;5.55;;;;;;;;;;5010858;28;20231;-86
2023/07/25 10:30:28;;;;;;;11.70;5.72;;;;;;;;;;5010235;28;20232;-85
2023/07/25 10:32:56;;;;;;;6.28;5.72;;;;;;;;;;5010693;28;20227;-86
2023/07/25 10:35:41;;;;;;;9.20;5.40;;;;;;;;;;5010928;28;20290;-85
2023/07/25 10:38:11;;;;;;;7.28;5.10;;;;;;;;;;5011426;28;20243;-85
2023/07/25 10:40:54;;;;;;;10.55;5.22;;;;;;;;;;5011646;28;20243;-85
2023/07/25 10:43:21;;;;;;;9.93;5.63;;;;;;;;;;5011922;28;20709;-84
2023/07/25 10:45:49;;;;;;;5.20;4.50;;;;;;;;;;5011789;28;20224;-85
2023/07/25 10:48:43;;;;;;;13.45;5.20;;;;;;;;;;5017401;28;20254;-85
2023/07/25 10:51:10;;;;;;;9.02;5.82;;;;;;;;;;5021093;28;20236;-85
2023/07/25 10:53:39;;;;;;;6.32;4.95;;;;;;;;;;5024280;28;20247;-86
2023/07/25 10:56:08;;;;;;;7.50;4.88;;;;;;;;;;5028577;28;20302;-85
2023/07/25 10:58:37;;;;;;;15.07;5.10;;;;;;;;;;5015431;28;20244;-85
2023/07/25 11:01:05;;;;;;;8.05;4.93;;;;;;;;;;5012086;28;20703;-86
2023/07/25 11:03:33;;;;;;;7.50;4.35;;;;;;;;;;5012183;28;20491;-86
2023/07/25 11:06:17;;;;;;;5.30;4.55;;;;;;;;;;5015483;28;20220;-86
2023/07/25 11:08:46;;;;;;;6.65;4.75;;;;;;;;;;5016793;28;20792;-85
2023/07/25 11:11:13;;;;;;;7.60;4.85;;;;;;;;;;5017058;28;20587;-85
2023/07/25 11:13:41;;;;;;;17.13;5.18;;;;;;;;;;5012586;28;20242;-85
2023/07/25 11:16:08;;;;;;;6.35;4.80;;;;;;;;;;5013691;28;20294;-85
2023/07/25 11:18:37;;;;;;;5.47;4.63;;;;;;;;;;5012207;28;20586;-85
2023/07/25 11:21:06;;;;;;;10.82;5.32;;;;;;;;;;5011673;28;20701;-85
2023/07/25 11:23:34;;;;;;;10.93;4.60;;;;;;;;;;5010831;28;20684;-86
2023/07/25 11:26:03;;;;;;;6.88;4.47;;;;;;;;;;5010023;28;20224;-85
2023/07/25 11:28:30;;;;;;;6.88;4.18;;;;;;;;;;5009864;28;20217;-85
2023/07/25 11:30:57;;;;;;;6.82;5.28;;;;;;;;;;5017256;28;20341;-85
2023/07/25 11:33:25;;;;;;;6.30;4.70;;;;;;;;;;5013427;28;20305;-85
2023/07/25 11:35:53;;;;;;;9.27;5.50;;;;;;;;;;5010781;28;20279;-86
2023/07/25 11:38:20;;;;;;;8.73;4.25;;;;;;;;;;5011813;28;20315;-85
2023/07/25 11:40:50;;;;;;;5.78;4.60;;;;;;;;;;5011502;28;20337;-84
2023/07/25 11:43:18;;;;;;;8.75;5.03;;;;;;;;;;5011101;28;20192;-86
2023/07/25 11:45:46;;;;;;;11.82;4.35;;;;;;;;;;5011131;28;20354;-85
2023/07/25 11:48:13;;;;;;;11.75;4.03;;;;;;;;;;5011413;28;20681;-86
2023/07/25 11:50:42;;;;;;;12.50;4.85;;;;;;;;;;5013458;28;20207;-85
2023/07/25 11:53:09;;;;;;;5.70;4.55;;;;;;;;;;5012957;28;20710;-85
2023/07/25 11:55:37;;;;;;;5.07;4.43;;;;;;;;;;5028008;28;20239;-84
2023/07/25 11:58:04;;;;;;;8.18;4.88;;;;;;;;;;5019508;28;20750;-85
2023/07/25 12:00:41;;;;;;;5.03;4.43;;;;;;;;;;5012738;28;20204;-85
2023/07/25 12:03:17;;;;;;;6.03;3.80;;;;;;;;;;5012306;28;20238;-85
2023/07/25 12:05:43;;;;;;;11.23;2.80;;;;;;;;;;5012737;28;20267;-87
2023/07/25 12:08:10;;;;;;;10.90;2.50;;;;;;;;;;5013657;28;20546;-86
2023/07/25 12:10:37;;;;;;;7.68;2.75;;;;;;;;;;5011530;28;20207;-85
2023/07/25 12:13:08;;;;;;;4.50;2.70;;;;;;;;;;5011928;28;20227;-85
2023/07/25 12:15:54;;;;;;;5.68;3.10;;;;;;;;;;5009963;28;20204;-87
2023/07/25 12:18:30;;;;;;;8.82;3.10;;;;;;;;;;5009861;28;20254;-85
2023/07/25 12:20:58;;;;;;;6.53;2.90;;;;;;;;;;5010982;28;20199;-85
2023/07/25 12:23:29;;;;;;;8.82;3.28;;;;;;;;;;5010472;28;20212;-85
2023/07/25 12:25:56;;;;;;;9.48;2.65;;;;;;;;;;5010073;28;20207;-86
2023/07/25 12:28:24;;;;;;;13.93;2.45;;;;;;;;;;5010474;28;20241;-87
2023/07/25 12:30:51;;;;;;;7.35;2.45;;;;;;;;;;5010361;28;20332;-86
2023/07/25 12:33:18;;;;;;;7.25;2.63;;;;;;;;;;4992222;28;20196;-86
2023/07/25 12:35:46;;;;;;;10.45;3.10;;;;;;;;;;5010222;28;20200;-85
2023/07/25 12:38:14;;;;;;;5.03;2.92;;;;;;;;;;5009908;28;20235;-85
2023/07/25 12:40:41;;;;;;;4.15;2.22;;;;;;;;;;5010064;28;20204;-86
2023/07/25 12:43:08;;;;;;;4.70;2.70;;;;;;;;;;5010710;28;20208;-87
2023/07/25 12:45:35;;;;;;;7.65;3.03;;;;;;;;;;5009748;28;20669;-84
2023/07/25 12:48:02;;;;;;;5.97;2.60;;;;;;;;;;5010043;28;20200;-85
2023/07/25 12:50:29;;;;;;;9.15;2.35;;;;;;;;;;5010539;28;20531;-86
2023/07/25 12:52:58;;;;;;;2.33;2.13;;;;;;;;;;5010521;28;20556;-86
2023/07/25 12:55:24;;;;;;;4.72;2.00;;;;;;;;;;5009689;28;20251;-87
2023/07/25 12:57:52;;;;;;;2.60;1.63;;;;;;;;;;4989466;28;20237;-85
2023/07/25 13:00:20;;;;;;;4.53;2.50;;;;;;;;;;4989549;28;20621;-85
2023/07/25 13:02:47;;;;;;;6.20;2.38;;;;;;;;;;4988609;28;20243;-84
2023/07/25 13:05:14;;;;;;;9.07;2.17;;;;;;;;;;4989462;28;20663;-87
2023/07/25 13:07:43;;;;;;;3.92;2.30;;;;;;;;;;4989891;28;20232;-88
2023/07/25 13:10:12;;;;;;;9.38;2.20;;;;;;;;;;4988300;28;20295;-85
2023/07/25 13:12:39;;;;;;;10.82;2.83;;;;;;;;;;4989784;28;20229;-85
2023/07/25 13:15:07;;;;;;;7.50;2.67;;;;;;;;;;4988759;28;20225;-84
2023/07/25 13:17:34;;;;;;;7.63;2.55;;;;;;;;;;4988644;28;20228;-85
2023/07/25 13:20:01;;;;;;;4.25;2.45;;;;;;;;;;4988942;28;20225;-87
2023/07/25 13:22:28;;;;;;;7.40;2.55;;;;;;;;;;5000535;28;20226;-85
2023/07/25 13:24:56;;;;;;;5.07;2.30;;;;;;;;;;5008036;28;20721;-85
2023/07/25 13:27:27;;;;;;;3.15;2.00;;;;;;;;;;5008645;28;20708;-86
2023/07/25 13:29:54;;;;;;;2.55;2.08;;;;;;;;;;5008275;28;20236;-87
2023/07/25 13:32:21;;;;;;;2.65;2.22;;;;;;;;;;5008679;28;20234;-86
2023/07/25 13:34:48;;;;;;;2.78;2.15;;;;;;;;;;5008491;28;20263;-85
2023/07/25 13:37:16;;;;;;;4.30;2.08;;;;;;;;;;5008818;28;20259;-84
2023/07/25 13:39:43;;;;;;;6.40;2.38;;;;;;;;;;5007758;28;20232;-85
2023/07/25 13:42:11;;;;;;;4.55;2.47;;;;;;;;;;5009527;28;20220;-85
2023/07/25 13:44:40;;;;;;;6.68;2.67;;;;;;;;;;5008942;28;20278;-87
2023/07/25 13:47:06;;;;;;;4.68;2.38;;;;;;;;;;5008383;28;20298;-87
2023/07/25 13:49:33;;;;;;;3.60;2.25;;;;;;;;;;5008385;28;20232;-87
2023/07/25 13:52:00;;;;;;;4.18;2.55;;;;;;;;;;5008396;28;20757;-88
2023/07/25 13:54:29;;;;;;;4.22;2.33;;;;;;;;;;5008877;28;20876;-86
2023/07/25 13:56:56;;;;;;;6.50;2.22;;;;;;;;;;5008287;28;20590;-86
2023/07/25 13:59:22;;;;;;;4.93;2.40;;;;;;;;;;5009686;28;20258;-86
2023/07/25 14:01:51;;;;;;;4.78;1.85;;;;;;;;;;5008260;28;20234;-85
2023/07/25 14:04:18;;;;;;;2.83;2.20;;;;;;;;;;5008716;28;20253;-86
2023/07/25 14:06:50;;;;;;;5.78;2.85;;;;;;;;;;5010655;28;20224;-88
2023/07/25 14:09:19;;;;;;;4.53;1.70;;;;;;;;;;5012260;28;20227;-87
2023/07/25 14:11:46;;;;;;;3.25;2.10;;;;;;;;;;5011964;28;20728;-85
2023/07/25 14:14:16;;;;;;;6.03;2.55;;;;;;;;;;5012683;28;20725;-87
2023/07/25 14:16:43;;;;;;;8.43;2.55;;;;;;;;;;5011801;28;20689;-87
2023/07/25 14:19:12;;;;;;;9.25;1.98;;;;;;;;;;5011477;28;20242;-87
2023/07/25 14:21:39;;;;;;;3.70;2.20;;;;;;;;;;5012399;28;20290;-87
2023/07/25 14:24:07;;;;;;;10.63;3.05;;;;;;;;;;5013490;28;20224;-89
2023/07/25 14:26:35;;;;;;;9.60;3.13;;;;;;;;;;5012309;28;20220;-87
2023/07/25 14:29:03;;;;;;;5.82;1.77;;;;;;;;;;5013115;28;20364;-87
2023/07/25 14:31:31;;;;;;;7.07;2.28;;;;;;;;;;5009969;28;20233;-87
2023/07/25 14:33:58;;;;;;;6.78;1.95;;;;;;;;;;5011869;28;20323;-89
2023/07/25 14:36:27;;;;;;;4.45;1.92;;;;;;;;;;5012417;28;20245;-88
2023/07/25 14:38:54;;;;;;;3.55;1.95;;;;;;;;;;5006399;28;20290;-88
2023/07/25 14:41:21;;;;;;;4.63;2.53;;;;;;;;;;5006054;28;20292;-89
2023/07/25 14:43:49;;;;;;;4.78;2.50;;;;;;;;;;5015101;28;20227;-87
2023/07/25 14:46:15;;;;;;;4.93;1.95;;;;;;;;;;5017895;28;20310;-87
2023/07/25 14:48:42;;;;;;;4.18;2.33;;;;;;;;;;5016102;28;20239;-87
2023/07/25 14:51:10;;;;;;;9.15;2.00;;;;;;;;;;5019776;28;20247;-87
2023/07/25 14:53:39;;;;;;;9.60;2.75;;;;;;;;;;5018511;28;20288;-88